Charenton, LA (70523)

12:38 PM CDT on September 03, 2015 (GMT -0500)
Gonsoulin Subd | | Change Station
CLOSE
Current Station
Personal Weather Station
Location: Charenton, LA
Elevation: 10 ft
Nearby Weather Stations

Elev 10 ft 29.87 °N, 91.53 °W | Updated 11 minutes ago

Overcast
Overcast
80.2 °F
Feels Like 87 °F
N
2.7
Wind Variable Wind from ESE

Today
High -- | Low -- °F
--% Chance of Precip.
Yesterday
High -- | Low -- °F
Precip. -- in
6:44 AM 7:26 PM
Waning Gibbous, 68% visible
Pressure 29.98 in
Visibility 10.0 miles
Clouds Few 2500 ft
Scattered Clouds 5000 ft
Mostly Cloudy 6000 ft
Heat Index 87 °F
Dew Point 78 °F
Humidity 94%
Rainfall 0.14 in
Snow Depth Not available.
UV 7 out of 12
Pollen 7.90 out of 12
Air Quality Not available.
Flu Activity Not available.
METAR KPTN 031735Z AUTO 06006KT 10SM FEW025 SCT050 BKN060 29/24 A2998 RMK AO1 LTG DSNT NE
Pressure 29.98 in
Visibility 10.0 miles
Clouds Few 2500 ft
Scattered Clouds 5000 ft
Mostly Cloudy 6000 ft
Heat Index 87 °F
Dew Point 78 °F
Humidity 94%
Rainfall 0.14 in
Snow Depth Not available.
UV 7 out of 12
Pollen 7.90 out of 12
Air Quality Not available.
Flu Activity Not available.
METAR KPTN 031735Z AUTO 06006KT 10SM FEW025 SCT050 BKN060 29/24 A2998 RMK AO1 LTG DSNT NE

10-Day Weather Forecast

×

Almanac

Astronomy

Sep. 03, 2015 Rise Set
Actual Time
Civil Twilight
Nautical Twilight
Astronomical Twilight
Moon
Length of Visible Light
Length of Day
Tomorrow will be .
, % of the Moon is Illuminated

Today's Extremes

State Highs State Lows

Community

WunderPhotos

Upload Photos

1,851,991 photos uploaded!

WunderBlogs® & News

Nearby

Air Quality

  Air Quality AQ Index Pollutant
Not available.

Snow Depth

Station Depth Elevation

Earthquake Activity

City Distance Mag. Time & Date
Minimum magnitude displayed is 2.5.

Coastal Water Temperatures

Place Temperature

Stations

Nearby Weather Stations

Station Location Temp. Windchill Dew Point Humidity Wind Precip. Elev Updated Type